Time;durP1;ratioP1;P1;durP2;ratioP2;P2;SDS_P1;SDS_P2;PMS_P1;PMS_P2;Temp;Humidity;BMP_temperature;BMP_pressure;BME280_temperature;BME280_humidity;BME280_pressure;Samples;Min_cycle;Max_cycle;Signal;HPM_P1;HPM_P2
2022/03/11 00:00:22;;;;;;;9.55;6.70;;;;;;;6.67;41.52;100676.59;5027211;28;20053;-79
2022/03/11 00:02:50;;;;;;;8.77;6.38;;;;;;;6.87;41.02;100672.94;5028632;28;20060;-79
2022/03/11 00:05:18;;;;;;;8.15;6.15;;;;;;;7.03;40.83;100680.03;5029457;28;20049;-79
2022/03/11 00:07:45;;;;;;;10.05;7.28;;;;;;;7.09;40.20;100672.50;5027878;28;20107;-79
2022/03/11 00:10:12;;;;;;;8.68;6.75;;;;;;;7.26;39.77;100672.94;5030732;28;20058;-79
2022/03/11 00:12:40;;;;;;;9.05;6.88;;;;;;;7.39;39.75;100665.13;5011816;28;20056;-80
2022/03/11 00:15:08;;;;;;;9.35;6.38;;;;;;;7.56;39.16;100673.03;5030057;28;20506;-80
2022/03/11 00:17:37;;;;;;;9.23;6.88;;;;;;;7.62;38.22;100661.63;5030284;28;20049;-79
2022/03/11 00:20:06;;;;;;;10.82;6.55;;;;;;;7.73;38.15;100668.72;5028816;28;20049;-79
2022/03/11 00:22:35;;;;;;;10.13;6.43;;;;;;;7.83;37.75;100653.97;5029683;28;20116;-79
2022/03/11 00:25:03;;;;;;;10.98;6.93;;;;;;;8.05;37.76;100659.00;5028286;28;20049;-79
2022/03/11 00:27:30;;;;;;;11.18;6.82;;;;;;;8.11;37.21;100660.59;5028858;28;20060;-79
2022/03/11 00:29:57;;;;;;;9.48;6.43;;;;;;;8.25;37.53;100668.22;5027403;28;20681;-79
2022/03/11 00:32:25;;;;;;;9.98;6.88;;;;;;;8.27;36.67;100663.19;5028829;28;20136;-79
2022/03/11 00:34:54;;;;;;;9.38;6.57;;;;;;;8.43;37.37;100661.94;5028593;28;20516;-80
2022/03/11 00:37:21;;;;;;;11.50;6.65;;;;;;;8.52;36.85;100659.34;5027424;28;20048;-80
2022/03/11 00:39:48;;;;;;;9.13;6.72;;;;;;;8.59;36.88;100661.75;5026013;28;20069;-79
2022/03/11 00:42:16;;;;;;;8.50;6.35;;;;;;;8.65;36.16;100666.97;5029435;28;20053;-80
2022/03/11 00:44:44;;;;;;;10.63;6.70;;;;;;;8.65;36.35;100663.34;5027913;28;20057;-79
2022/03/11 00:47:11;;;;;;;8.63;5.90;;;;;;;8.71;36.78;100664.94;5027636;28;20049;-79
2022/03/11 00:49:39;;;;;;;10.15;7.10;;;;;;;8.70;36.28;100660.53;5030337;28;20053;-79
2022/03/11 00:52:10;;;;;;;8.38;6.25;;;;;;;8.81;35.80;100664.81;5028373;28;20062;-79
2022/03/11 00:54:37;;;;;;;10.95;6.78;;;;;;;8.81;35.90;100662.03;5008076;28;20061;-79
2022/03/11 00:57:05;;;;;;;9.65;6.53;;;;;;;8.87;36.50;100657.25;5027611;28;20499;-79
2022/03/11 00:59:32;;;;;;;8.38;6.50;;;;;;;8.77;36.16;100666.53;5026775;28;20072;-80
2022/03/11 01:02:00;;;;;;;8.30;6.20;;;;;;;8.81;36.09;100669.53;5026743;28;20072;-79
2022/03/11 01:04:27;;;;;;;9.00;6.65;;;;;;;8.82;36.20;100665.63;5029454;28;20049;-80
2022/03/11 01:06:54;;;;;;;9.20;6.97;;;;;;;8.77;36.48;100658.19;5029051;28;20049;-79
2022/03/11 01:09:25;;;;;;;8.23;6.50;;;;;;;8.81;36.26;100653.69;5027697;28;20490;-79
2022/03/11 01:11:53;;;;;;;9.50;6.75;;;;;;;8.84;36.17;100653.13;5028117;28;20064;-79
2022/03/11 01:14:20;;;;;;;11.13;7.88;;;;;;;8.83;36.25;100637.56;5028333;28;20045;-79
2022/03/11 01:16:47;;;;;;;8.52;7.03;;;;;;;8.81;35.82;100647.31;5028366;28;20045;-79
2022/03/11 01:19:15;;;;;;;10.48;6.85;;;;;;;8.82;36.55;100647.03;5027723;28;20588;-79
2022/03/11 01:21:42;;;;;;;10.13;7.32;;;;;;;8.80;36.42;100646.50;5027442;28;20053;-79
2022/03/11 01:24:09;;;;;;;9.43;7.50;;;;;;;8.78;36.23;100643.19;5027005;28;20042;-79
2022/03/11 01:26:38;;;;;;;9.75;7.22;;;;;;;8.71;36.65;100646.34;5024118;28;20069;-79
2022/03/11 01:29:05;;;;;;;9.43;7.30;;;;;;;8.61;37.37;100640.06;5022943;28;20498;-80
2022/03/11 01:31:34;;;;;;;9.75;7.13;;;;;;;8.56;37.19;100640.16;5026057;28;20049;-79
2022/03/11 01:34:01;;;;;;;11.20;7.45;;;;;;;8.65;36.85;100636.44;5028569;28;20060;-80
2022/03/11 01:36:28;;;;;;;13.23;7.32;;;;;;;8.71;36.93;100628.84;5026946;28;20053;-79
2022/03/11 01:38:56;;;;;;;11.77;7.60;;;;;;;8.60;37.33;100642.03;5027155;28;20053;-79
2022/03/11 01:41:23;;;;;;;9.50;6.93;;;;;;;8.65;37.20;100624.47;5029948;28;20049;-79
2022/03/11 01:43:54;;;;;;;11.15;7.90;;;;;;;8.60;37.00;100624.56;5026239;28;20057;-80
2022/03/11 01:46:21;;;;;;;11.43;7.45;;;;;;;8.62;37.50;100630.63;5026762;28;20053;-79
2022/03/11 01:48:49;;;;;;;9.98;7.07;;;;;;;8.66;37.52;100615.84;5024803;28;20403;-78
2022/03/11 01:51:17;;;;;;;10.50;7.43;;;;;;;8.60;36.91;100619.00;5028183;28;20406;-79
2022/03/11 01:53:45;;;;;;;10.00;7.18;;;;;;;8.65;37.11;100613.38;5028749;28;20057;-78
2022/03/11 01:56:13;;;;;;;10.05;7.30;;;;;;;8.65;37.28;100605.03;5025058;28;20502;-79
2022/03/11 01:58:41;;;;;;;10.90;6.60;;;;;;;8.62;37.32;100609.25;5027389;28;20513;-80
2022/03/11 02:01:10;;;;;;;9.98;7.32;;;;;;;8.69;36.90;100597.75;5026585;28;20064;-80
2022/03/11 02:03:38;;;;;;;10.10;7.50;;;;;;;8.60;37.32;100594.81;5027609;28;20057;-79
2022/03/11 02:06:09;;;;;;;12.57;8.25;;;;;;;8.52;37.28;100596.34;5025760;28;20489;-80
2022/03/11 02:08:36;;;;;;;10.48;7.68;;;;;;;8.50;37.48;100597.72;5029243;28;20052;-79
2022/03/11 02:11:04;;;;;;;11.93;7.70;;;;;;;8.59;37.59;100595.97;5028519;28;20049;-80
2022/03/11 02:13:43;;;;;;;9.60;7.10;;;;;;;8.63;36.91;100590.63;5009320;28;20770;-80
2022/03/11 02:16:13;;;;;;;9.37;6.90;;;;;;;8.72;37.30;100594.41;5028902;28;20374;-80
2022/03/11 02:18:41;;;;;;;9.40;7.00;;;;;;;8.60;37.53;100585.69;5025420;28;20065;-80
2022/03/11 02:21:10;;;;;;;11.63;7.03;;;;;;;8.63;37.78;100601.72;5026916;28;20384;-79
2022/03/11 02:23:46;;;;;;;13.17;8.20;;;;;;;8.61;37.82;100601.19;5027395;28;20049;-81
2022/03/11 02:26:14;;;;;;;11.27;7.82;;;;;;;8.56;37.30;100604.88;5028317;28;20049;-80
2022/03/11 02:28:41;;;;;;;12.30;8.00;;;;;;;8.32;38.05;100602.09;5027523;28;20421;-78
2022/03/11 02:31:09;;;;;;;12.43;7.97;;;;;;;8.35;38.05;100590.41;5029249;28;20100;-79
2022/03/11 02:33:36;;;;;;;12.15;8.30;;;;;;;8.52;37.97;100593.56;5026514;28;20057;-80
2022/03/11 02:36:05;;;;;;;12.13;8.10;;;;;;;8.45;37.87;100595.84;5027125;28;21227;-80
2022/03/11 02:38:32;;;;;;;9.32;7.10;;;;;;;8.33;38.23;100587.91;5025213;28;20061;-80
2022/03/11 02:41:01;;;;;;;10.10;7.28;;;;;;;8.43;38.08;100587.00;5026129;28;21270;-80
2022/03/11 02:43:29;;;;;;;11.45;8.13;;;;;;;8.33;38.31;100581.53;5026757;28;20057;-80
2022/03/11 02:45:56;;;;;;;9.95;7.45;;;;;;;8.38;38.06;100588.97;5027894;28;20050;-81
2022/03/11 02:48:24;;;;;;;10.30;7.90;;;;;;;8.28;38.38;100581.63;5026416;28;20045;-80
2022/03/11 02:50:51;;;;;;;11.85;7.85;;;;;;;8.28;38.08;100587.16;5026612;28;20053;-80
2022/03/11 02:53:19;;;;;;;11.75;8.15;;;;;;;8.20;38.04;100585.03;5027322;28;20045;-80
2022/03/11 02:55:46;;;;;;;10.93;7.63;;;;;;;8.26;37.87;100575.53;5026070;28;20054;-80
2022/03/11 02:58:15;;;;;;;13.30;7.75;;;;;;;8.30;38.13;100571.06;5026384;28;20113;-80
2022/03/11 03:00:42;;;;;;;12.15;8.02;;;;;;;8.05;38.38;100563.84;5027519;28;20050;-79
2022/03/11 03:03:10;;;;;;;11.00;7.28;;;;;;;8.04;38.58;100560.25;5029092;28;20045;-80
2022/03/11 03:05:37;;;;;;;11.90;8.40;;;;;;;8.08;38.17;100554.94;5026492;28;20355;-80
2022/03/11 03:08:05;;;;;;;10.38;7.72;;;;;;;8.14;37.97;100562.88;5025068;28;20048;-78
2022/03/11 03:10:34;;;;;;;11.13;7.90;;;;;;;8.03;37.59;100558.59;5027769;28;20108;-81
2022/03/11 03:13:02;;;;;;;12.07;7.93;;;;;;;8.05;37.70;100561.91;5026015;28;20057;-80
2022/03/11 03:15:32;;;;;;;11.82;7.45;;;;;;;7.99;37.74;100540.06;5028816;28;20046;-79
2022/03/11 03:17:59;;;;;;;9.98;7.13;;;;;;;8.00;37.48;100561.13;5032502;28;20061;-80
2022/03/11 03:20:27;;;;;;;15.45;8.15;;;;;;;7.94;37.63;100552.06;5030673;28;20065;-80
2022/03/11 03:22:54;;;;;;;11.70;8.43;;;;;;;7.92;37.65;100545.97;5031386;28;20064;-80
2022/03/11 03:25:21;;;;;;;12.20;7.90;;;;;;;7.84;38.13;100546.63;5032767;28;20057;-80
2022/03/11 03:27:49;;;;;;;12.30;8.15;;;;;;;7.90;38.02;100551.00;5031887;28;20049;-80
2022/03/11 03:30:17;;;;;;;10.48;7.57;;;;;;;7.85;38.13;100551.03;5030670;28;20707;-80
2022/03/11 03:32:46;;;;;;;9.77;6.90;;;;;;;7.83;37.33;100556.06;5030759;28;20041;-79
2022/03/11 03:35:13;;;;;;;10.70;7.40;;;;;;;7.78;38.65;100553.34;5030023;28;20056;-81
2022/03/11 03:37:41;;;;;;;10.02;7.85;;;;;;;7.80;38.48;100545.56;5032412;28;20048;-79
2022/03/11 03:40:11;;;;;;;12.15;7.90;;;;;;;7.70;38.54;100541.75;5031749;28;20079;-81
2022/03/11 03:42:38;;;;;;;9.18;7.32;;;;;;;7.73;38.35;100548.69;5032172;28;20053;-80
2022/03/11 03:45:07;;;;;;;12.10;8.18;;;;;;;7.63;37.79;100546.84;5031472;28;20061;-80
2022/03/11 03:47:34;;;;;;;11.82;7.90;;;;;;;7.80;38.23;100545.56;5032416;28;20045;-79
2022/03/11 03:50:03;;;;;;;10.40;7.57;;;;;;;7.69;38.39;100551.22;5029990;28;20064;-80
2022/03/11 03:52:31;;;;;;;11.75;7.90;;;;;;;7.58;38.14;100546.06;5030454;28;20417;-80
2022/03/11 03:54:58;;;;;;;11.77;7.80;;;;;;;7.56;37.97;100551.91;5031692;28;20061;-78
2022/03/11 03:57:27;;;;;;;10.57;8.00;;;;;;;7.67;37.43;100556.22;5029972;28;20405;-80
2022/03/11 03:59:54;;;;;;;12.90;8.88;;;;;;;7.61;38.54;100556.56;5029790;28;20489;-78
2022/03/11 04:02:21;;;;;;;13.57;8.77;;;;;;;7.68;38.33;100554.28;5032824;28;20041;-79
2022/03/11 04:04:49;;;;;;;12.57;8.68;;;;;;;7.70;37.91;100558.38;5030264;28;20060;-78
2022/03/11 04:07:17;;;;;;;11.23;8.25;;;;;;;7.68;38.45;100552.31;5030340;28;20064;-79
2022/03/11 04:09:45;;;;;;;11.23;8.70;;;;;;;7.68;38.53;100554.28;5031163;28;20418;-79
2022/03/11 04:12:13;;;;;;;13.77;8.30;;;;;;;7.66;38.60;100557.31;5028080;28;20068;-78
2022/03/11 04:14:40;;;;;;;10.48;8.35;;;;;;;7.68;37.70;100555.09;5028972;28;20045;-79
2022/03/11 04:17:07;;;;;;;12.70;8.77;;;;;;;7.63;38.11;100557.94;5028470;28;20049;-78
2022/03/11 04:19:35;;;;;;;12.38;8.77;;;;;;;7.45;38.09;100555.88;5032619;28;20490;-79
2022/03/11 04:22:02;;;;;;;11.68;8.55;;;;;;;7.46;38.77;100549.22;5030463;28;20064;-79
2022/03/11 04:24:31;;;;;;;10.90;8.73;;;;;;;7.47;38.53;100548.09;5030166;28;20053;-78
2022/03/11 04:26:59;;;;;;;12.48;9.30;;;;;;;7.48;38.38;100547.81;5028245;28;20064;-79
2022/03/11 04:29:26;;;;;;;11.85;8.95;;;;;;;7.49;38.48;100548.63;5028867;28;20060;-79
2022/03/11 04:31:54;;;;;;;12.50;8.35;;;;;;;7.40;38.30;100544.84;5028885;28;20041;-79
2022/03/11 04:34:22;;;;;;;11.70;9.30;;;;;;;7.34;38.79;100549.59;5028457;28;20049;-79
2022/03/11 04:36:50;;;;;;;13.23;8.73;;;;;;;7.37;38.90;100537.09;5025638;28;20509;-79
2022/03/11 04:39:18;;;;;;;13.95;9.32;;;;;;;7.21;38.95;100545.56;5027071;28;20501;-78
2022/03/11 04:41:47;;;;;;;14.90;9.35;;;;;;;7.17;39.79;100538.94;5027123;28;20057;-79
2022/03/11 04:44:14;;;;;;;10.93;8.05;;;;;;;7.19;38.96;100535.91;5029050;28;20072;-79
2022/03/11 04:46:42;;;;;;;13.73;9.05;;;;;;;7.16;38.90;100537.31;5028841;28;20494;-78
2022/03/11 04:49:09;;;;;;;12.48;9.00;;;;;;;7.13;39.74;100540.66;5028737;28;20494;-80
2022/03/11 04:51:38;;;;;;;12.75;9.45;;;;;;;7.17;38.96;100536.19;5030010;28;20049;-79
2022/03/11 04:54:06;;;;;;;11.18;8.65;;;;;;;7.20;38.88;100540.31;5031453;28;20049;-80
2022/03/11 04:56:34;;;;;;;14.85;9.85;;;;;;;7.07;38.64;100536.25;5030879;28;20597;-80
2022/03/11 04:59:02;;;;;;;13.10;8.57;;;;;;;6.99;38.98;100547.94;5030623;28;20057;-79
2022/03/11 05:01:30;;;;;;;13.00;9.38;;;;;;;6.90;39.56;100539.44;5031058;28;20750;-81
2022/03/11 05:03:57;;;;;;;14.18;9.65;;;;;;;6.81;39.42;100536.47;5028607;28;20057;-80
2022/03/11 05:06:25;;;;;;;11.77;8.82;;;;;;;6.91;39.47;100544.69;5030058;28;20045;-80
2022/03/11 05:08:52;;;;;;;13.40;9.77;;;;;;;6.77;39.45;100535.38;5029103;28;20486;-79
2022/03/11 05:11:20;;;;;;;13.93;10.20;;;;;;;6.81;39.17;100538.41;5029344;28;20057;-80
2022/03/11 05:13:47;;;;;;;13.40;10.25;;;;;;;6.79;39.48;100549.75;5031342;28;20052;-79
2022/03/11 05:16:16;;;;;;;13.60;9.88;;;;;;;6.84;39.69;100537.81;5028463;28;20055;-80
2022/03/11 05:18:44;;;;;;;16.00;10.32;;;;;;;6.83;39.46;100533.41;5027469;28;20057;-79
2022/03/11 05:21:11;;;;;;;13.40;9.68;;;;;;;6.80;39.31;100540.31;5028921;28;20064;-80
2022/03/11 05:23:38;;;;;;;12.80;9.70;;;;;;;6.87;38.85;100540.03;5031299;28;20060;-80
2022/03/11 05:26:24;;;;;;;13.23;10.32;;;;;;;6.88;39.33;100538.91;5027783;28;20450;-80
2022/03/11 05:28:53;;;;;;;13.70;10.20;;;;;;;6.90;39.52;100540.25;5028060;28;20053;-81
2022/03/11 05:31:22;;;;;;;13.90;10.15;;;;;;;6.95;40.02;100530.25;5029605;28;20049;-79
2022/03/11 05:33:50;;;;;;;13.00;9.40;;;;;;;6.85;39.44;100548.63;5027742;28;20049;-80
2022/03/11 05:36:17;;;;;;;13.90;10.13;;;;;;;6.86;39.01;100552.19;5031422;28;20044;-81
2022/03/11 05:38:45;;;;;;;13.70;9.73;;;;;;;6.93;39.16;100549.09;5027292;28;20049;-80
2022/03/11 05:41:12;;;;;;;13.45;10.80;;;;;;;6.84;39.13;100552.47;5028286;28;20513;-79
2022/03/11 05:43:39;;;;;;;11.68;9.20;;;;;;;6.87;38.69;100548.34;5028502;28;20481;-79
2022/03/11 05:46:07;;;;;;;11.95;8.95;;;;;;;6.85;38.63;100548.63;5027958;28;20049;-80
2022/03/11 05:48:35;;;;;;;13.85;10.38;;;;;;;6.81;39.00;100553.06;5028097;28;20041;-80
2022/03/11 05:51:03;;;;;;;14.23;10.45;;;;;;;6.77;38.71;100537.34;5028837;28;20068;-80
2022/03/11 05:53:30;;;;;;;15.40;10.77;;;;;;;6.71;39.20;100547.59;5026757;28;20064;-80
2022/03/11 05:55:57;;;;;;;15.20;10.40;;;;;;;6.70;39.40;100549.53;5026659;28;20052;-80
2022/03/11 05:58:25;;;;;;;15.38;11.00;;;;;;;6.67;39.48;100546.53;5028491;28;20045;-79
2022/03/11 06:00:52;;;;;;;15.50;10.13;;;;;;;6.60;38.85;100548.78;5028473;28;20080;-79
2022/03/11 06:03:20;;;;;;;16.40;10.88;;;;;;;6.45;39.16;100539.47;5026113;28;20053;-79
2022/03/11 06:05:49;;;;;;;15.32;10.88;;;;;;;6.61;38.76;100542.13;5029613;28;20056;-79
2022/03/11 06:08:17;;;;;;;13.98;10.40;;;;;;;6.64;39.38;100544.34;5030698;28;20413;-80
2022/03/11 06:10:46;;;;;;;19.00;10.90;;;;;;;6.64;38.64;100539.63;5028185;28;20056;-79
2022/03/11 06:13:14;;;;;;;14.50;10.80;;;;;;;6.61;38.43;100536.59;5028155;28;20045;-79
2022/03/11 06:15:41;;;;;;;15.35;11.25;;;;;;;6.62;39.09;100541.84;5028303;28;20057;-80
2022/03/11 06:18:09;;;;;;;16.27;10.98;;;;;;;6.60;38.66;100537.72;5028129;28;20063;-80
2022/03/11 06:20:37;;;;;;;13.95;10.95;;;;;;;6.62;38.67;100536.31;5027314;28;20057;-80
2022/03/11 06:23:06;;;;;;;14.65;11.05;;;;;;;6.55;38.38;100538.59;5026873;28;20056;-80
2022/03/11 06:25:34;;;;;;;17.58;11.63;;;;;;;6.56;38.73;100533.88;5028308;28;20061;-79
2022/03/11 06:28:02;;;;;;;16.40;10.90;;;;;;;6.61;38.63;100534.66;5028176;28;20057;-80
2022/03/11 06:30:29;;;;;;;16.85;10.85;;;;;;;6.61;37.91;100533.81;5027999;28;20050;-81
2022/03/11 06:32:57;;;;;;;14.63;10.90;;;;;;;6.67;38.53;100524.38;5028600;28;20053;-80
2022/03/11 06:35:25;;;;;;;17.88;11.07;;;;;;;6.63;38.68;100537.13;5027721;28;20057;-79
2022/03/11 06:37:54;;;;;;;16.17;11.55;;;;;;;6.80;37.99;100529.25;5030988;28;20080;-80
2022/03/11 06:40:23;;;;;;;16.60;11.80;;;;;;;7.22;37.16;100530.59;5025552;28;20046;-82
2022/03/11 06:42:53;;;;;;;16.90;12.13;;;;;;;7.70;36.20;100530.66;5034025;28;20053;-82
2022/03/11 06:45:21;;;;;;;16.17;11.10;;;;;;;8.25;35.91;100524.78;5030719;28;20072;-80
2022/03/11 06:47:49;;;;;;;15.15;11.18;;;;;;;8.75;34.80;100524.38;5031694;28;20049;-81
2022/03/11 06:50:19;;;;;;;14.55;10.70;;;;;;;9.75;33.29;100522.09;5026796;28;20377;-81
2022/03/11 06:52:46;;;;;;;;;;;;;;;10.68;31.79;100517.38;5032199;28;20051;-81
2022/03/11 06:55:17;;;;;;;13.18;9.88;;;;;;;11.45;30.97;100513.53;5032504;28;19921;-82
2022/03/11 06:57:46;;;;;;;16.15;12.40;;;;;;;12.29;28.88;100513.75;5033825;28;20049;-81
2022/03/11 07:00:14;;;;;;;14.77;11.43;;;;;;;13.09;28.53;100507.88;5034502;28;20406;-81
2022/03/11 07:02:42;;;;;;;14.70;11.90;;;;;;;14.03;26.81;100499.56;5034087;28;20061;-80
2022/03/11 07:05:14;;;;;;;15.45;11.68;;;;;;;14.43;26.47;100501.97;5035183;28;20053;-81
2022/03/11 07:07:41;;;;;;;14.63;12.48;;;;;;;15.39;25.23;100492.72;5036218;28;20069;-81
2022/03/11 07:10:10;;;;;;;14.65;12.38;;;;;;;15.89;23.99;100490.88;5037251;28;20049;-82
2022/03/11 07:12:38;;;;;;;16.45;11.70;;;;;;;16.84;23.11;100491.50;5038913;28;20049;-81
2022/03/11 07:15:09;;;;;;;14.00;11.80;;;;;;;17.66;22.41;100492.97;5037930;28;20058;-81
2022/03/11 07:17:36;;;;;;;13.82;12.02;;;;;;;18.51;21.66;100490.66;5041196;28;20053;-82
2022/03/11 07:20:05;;;;;;;12.88;11.57;;;;;;;19.40;20.92;100486.09;5036616;28;20754;-83
2022/03/11 07:22:34;;;;;;;12.25;10.95;;;;;;;20.13;19.74;100491.03;5038444;28;20064;-83
2022/03/11 07:25:01;;;;;;;13.52;11.77;;;;;;;20.36;19.08;100482.50;5037846;28;20053;-82
2022/03/11 07:27:32;;;;;;;13.50;12.13;;;;;;;21.38;18.20;100498.44;5040881;28;20406;-82
2022/03/11 07:29:59;;;;;;;13.15;11.48;;;;;;;21.32;17.92;100493.50;5036773;28;20053;-83
2022/03/11 07:32:30;;;;;;;15.13;12.75;;;;;;;21.79;17.43;100492.78;5036987;28;20055;-83
2022/03/11 07:34:58;;;;;;;13.55;11.32;;;;;;;21.95;16.98;100494.56;5034666;28;20503;-83
2022/03/11 07:37:25;;;;;;;13.68;12.30;;;;;;;21.97;16.68;100498.63;5036061;28;20045;-83
2022/03/11 07:39:53;;;;;;;14.57;12.63;;;;;;;21.81;17.08;100489.56;5038921;28;20056;-83
2022/03/11 07:42:20;;;;;;;14.30;11.98;;;;;;;21.65;17.22;100489.84;5037720;28;20050;-83
2022/03/11 07:44:48;;;;;;;14.20;12.15;;;;;;;21.14;16.98;100493.28;5036444;28;20072;-83
2022/03/11 07:47:17;;;;;;;14.25;12.63;;;;;;;21.54;17.04;100503.06;5041391;28;20049;-84
2022/03/11 07:49:47;;;;;;;13.35;11.88;;;;;;;20.87;17.28;100504.66;5037814;28;20056;-85
2022/03/11 07:52:15;;;;;;;14.32;12.35;;;;;;;20.03;18.09;100492.47;5031906;28;20053;-85
2022/03/11 07:54:43;;;;;;;13.30;11.80;;;;;;;20.28;17.84;100487.22;5031991;28;20045;-83
2022/03/11 07:57:11;;;;;;;13.07;11.65;;;;;;;19.49;18.70;100488.69;5032537;28;20054;-84
2022/03/11 07:59:40;;;;;;;13.07;11.45;;;;;;;19.34;18.88;100495.22;5034087;28;20490;-84
2022/03/11 08:02:08;;;;;;;13.93;11.60;;;;;;;20.00;18.33;100490.41;5036055;28;20100;-85
2022/03/11 08:04:40;;;;;;;13.40;11.68;;;;;;;19.74;18.31;100500.47;5033409;28;20045;-84
2022/03/11 08:07:11;;;;;;;14.48;12.75;;;;;;;19.86;17.93;100496.63;5036388;28;20054;-85
2022/03/11 08:09:39;;;;;;;12.98;11.57;;;;;;;20.41;17.82;100479.31;5036452;28;20053;-84
2022/03/11 08:12:07;;;;;;;13.38;11.75;;;;;;;20.38;18.05;100483.75;5035159;28;20053;-85
2022/03/11 08:14:39;;;;;;;13.82;11.68;;;;;;;19.96;18.06;100495.19;5032342;28;20140;-83
2022/03/11 08:17:12;;;;;;;13.43;12.02;;;;;;;19.56;18.65;100502.13;5031250;28;20045;-84
2022/03/11 08:19:39;;;;;;;13.02;11.68;;;;;;;20.56;17.88;100483.19;5034019;28;20450;-84
2022/03/11 08:22:07;;;;;;;13.32;11.68;;;;;;;20.87;17.37;100490.50;5039471;28;20076;-83
2022/03/11 08:24:35;;;;;;;13.55;12.02;;;;;;;20.91;17.19;100482.06;5039509;28;20052;-82
2022/03/11 08:27:03;;;;;;;13.35;11.95;;;;;;;20.87;17.42;100490.50;5038521;28;20056;-85
2022/03/11 08:29:34;;;;;;;14.05;11.15;;;;;;;22.02;16.37;100483.28;5031213;28;20049;-84
2022/03/11 08:32:03;;;;;;;12.23;10.65;;;;;;;23.40;15.57;100486.53;5032698;28;20045;-84
2022/03/11 08:34:30;;;;;;;13.73;12.20;;;;;;;23.43;15.03;100486.50;5031319;28;20829;-85
2022/03/11 08:36:58;;;;;;;13.43;11.63;;;;;;;22.42;16.15;100475.88;5033317;28;20060;-83
2022/03/11 08:39:28;;;;;;;12.98;11.60;;;;;;;21.97;16.08;100486.47;5035532;28;20421;-83
2022/03/11 08:41:57;;;;;;;13.45;11.10;;;;;;;22.20;15.94;100480.59;5030182;28;20064;-83
2022/03/11 08:44:24;;;;;;;13.05;11.50;;;;;;;22.38;15.79;100480.72;5032536;28;20474;-84
2022/03/11 08:46:52;;;;;;;12.32;10.88;;;;;;;21.93;15.83;100468.63;5031593;28;20054;-83
2022/03/11 08:49:19;;;;;;;12.40;11.10;;;;;;;22.29;15.90;100473.38;5032849;28;20060;-83
2022/03/11 08:51:49;;;;;;;12.60;11.13;;;;;;;21.77;16.43;100471.72;5032073;28;20080;-82
2022/03/11 08:54:19;;;;;;;12.60;11.23;;;;;;;21.19;16.48;100470.28;5033843;28;20059;-85
2022/03/11 08:56:48;;;;;;;12.35;10.88;;;;;;;22.17;15.92;100470.81;5032549;28;20050;-83
2022/03/11 08:59:19;;;;;;;11.68;10.48;;;;;;;22.52;15.64;100463.78;5028114;28;20053;-84
2022/03/11 09:01:46;;;;;;;12.68;11.38;;;;;;;22.80;15.66;100465.16;5034115;28;20057;-82
2022/03/11 09:04:14;;;;;;;12.25;11.05;;;;;;;22.81;15.12;100455.44;5034014;28;20053;-85
2022/03/11 09:06:41;;;;;;;12.07;10.45;;;;;;;23.08;15.28;100462.47;5034531;28;20088;-84
2022/03/11 09:09:11;;;;;;;12.77;10.77;;;;;;;23.50;14.80;100451.63;5030207;28;20049;-83
2022/03/11 09:11:38;;;;;;;;;;;;;;;22.16;15.47;100460.69;5030685;28;20592;-82
2022/03/11 09:14:07;;;;;;;12.18;10.57;;;;;;;22.85;15.76;100444.91;5030139;28;19925;-81
2022/03/11 09:16:38;;;;;;;12.45;10.82;;;;;;;23.12;15.18;100453.13;5030369;28;20045;-85
2022/03/11 09:19:05;;;;;;;12.55;11.25;;;;;;;23.38;14.57;100449.97;5036252;28;20045;-84
2022/03/11 09:21:33;;;;;;;11.77;10.38;;;;;;;22.59;15.58;100445.97;5032390;28;20053;-82
2022/03/11 09:24:00;;;;;;;11.43;10.30;;;;;;;22.21;15.74;100439.63;5032149;28;20049;-84
2022/03/11 09:26:27;;;;;;;11.98;10.52;;;;;;;22.80;15.50;100436.75;5036984;28;20056;-82
2022/03/11 09:28:55;;;;;;;11.70;10.45;;;;;;;23.31;14.83;100438.59;5031995;28;20053;-82
2022/03/11 09:31:22;;;;;;;11.27;10.07;;;;;;;24.04;14.40;100434.59;5031467;28;20068;-81
2022/03/11 09:33:51;;;;;;;13.07;11.68;;;;;;;25.47;13.40;100417.00;5030752;28;20057;-83
2022/03/11 09:36:19;;;;;;;11.85;10.65;;;;;;;24.90;13.56;100423.00;5032956;28;20058;-79
2022/03/11 09:38:46;;;;;;;12.68;10.07;;;;;;;24.66;13.99;100425.53;5029987;28;20040;-83
2022/03/11 09:41:15;;;;;;;11.35;10.23;;;;;;;25.81;13.54;100412.66;5033350;28;20049;-86
2022/03/11 09:43:42;;;;;;;11.77;10.10;;;;;;;26.34;13.03;100405.66;5032734;28;20375;-85
2022/03/11 09:46:10;;;;;;;11.98;10.70;;;;;;;25.39;13.20;100408.88;5032172;28;20077;-84
2022/03/11 09:48:38;;;;;;;12.03;10.20;;;;;;;25.43;13.11;100415.38;5033468;28;20056;-82
2022/03/11 09:51:07;;;;;;;11.18;10.02;;;;;;;25.58;13.42;100405.50;5028855;28;20045;-83
2022/03/11 09:53:36;;;;;;;10.95;9.80;;;;;;;27.22;12.47;100396.41;5029130;28;20053;-83
2022/03/11 09:56:04;;;;;;;;;;;;;;;28.20;11.73;100396.44;5028978;28;20061;-82
2022/03/11 09:58:31;;;;;;;11.45;10.35;;;;;;;28.36;11.58;100400.66;5031941;28;20270;-82
2022/03/11 10:00:59;;;;;;;11.18;10.00;;;;;;;27.50;11.73;100395.16;5029512;28;20049;-81
2022/03/11 10:03:29;;;;;;;11.48;10.38;;;;;;;28.19;11.65;100389.09;5031276;28;20057;-82
2022/03/11 10:05:56;;;;;;;10.73;9.45;;;;;;;28.57;11.32;100385.91;5030082;28;20064;-81
2022/03/11 10:08:37;;;;;;;10.80;9.70;;;;;;;26.98;12.04;100375.47;5029745;28;20466;-81
2022/03/11 10:11:23;;;;;;;11.73;9.60;;;;;;;28.10;11.55;100375.34;5029868;28;20056;-82
2022/03/11 10:13:51;;;;;;;10.75;9.75;;;;;;;28.85;11.21;100367.31;5027245;28;20045;-80
2022/03/11 10:16:20;;;;;;;10.82;9.80;;;;;;;28.14;11.49;100381.81;5026723;28;20057;-80
2022/03/11 10:18:56;;;;;;;11.32;9.90;;;;;;;27.76;11.69;100384.13;5026300;28;20060;-81
2022/03/11 10:21:29;;;;;;;11.18;9.68;;;;;;;27.73;11.48;100367.81;5029084;28;20494;-79
2022/03/11 10:23:58;;;;;;;12.13;9.45;;;;;;;27.45;11.76;100374.81;5029223;28;20517;-83
2022/03/11 10:26:33;;;;;;;11.02;9.85;;;;;;;27.10;12.22;100365.50;5028196;28;20056;-81
2022/03/11 10:29:02;;;;;;;9.93;8.93;;;;;;;28.42;11.86;100361.66;5032530;28;20041;-81
2022/03/11 10:31:31;;;;;;;11.95;9.95;;;;;;;28.96;10.95;100364.19;5028956;28;20041;-81
2022/03/11 10:34:16;;;;;;;10.23;9.23;;;;;;;30.03;10.87;100359.97;5030513;28;20054;-84
2022/03/11 10:36:48;;;;;;;11.23;10.23;;;;;;;29.44;10.49;100362.69;5033320;28;20045;-84
2022/03/11 10:39:19;;;;;;;10.35;9.27;;;;;;;28.35;11.06;100368.34;5029534;28;20046;-84
2022/03/11 10:41:49;;;;;;;11.05;9.98;;;;;;;28.61;11.31;100368.66;5031072;28;20761;-84
2022/03/11 10:44:22;;;;;;;10.80;9.77;;;;;;;26.35;12.42;100369.31;5030495;28;20513;-81
2022/03/11 10:46:49;;;;;;;11.13;9.98;;;;;;;25.59;12.89;100372.09;5008240;28;20050;-82
2022/03/11 10:49:27;;;;;;;11.35;10.15;;;;;;;25.56;12.89;100364.38;5026156;28;20398;-83
2022/03/11 10:51:55;;;;;;;10.43;9.43;;;;;;;25.29;13.03;100365.78;5024309;28;20417;-82
2022/03/11 10:54:28;;;;;;;10.88;9.77;;;;;;;26.31;12.87;100358.75;5025889;28;20492;-84
2022/03/11 10:56:55;;;;;;;11.90;9.45;;;;;;;26.07;12.81;100363.50;5030393;28;20483;-83
2022/03/11 10:59:28;;;;;;;10.55;9.52;;;;;;;26.89;12.67;100346.63;5029728;28;20068;-83
2022/03/11 11:01:57;;;;;;;10.75;9.65;;;;;;;26.37;12.77;100341.94;5030147;28;20132;-84
2022/03/11 11:04:24;;;;;;;;;;;;;;;26.06;12.91;100346.78;5030100;28;20057;-83
2022/03/11 11:06:52;;;;;;;10.77;9.75;;;;;;;25.87;13.29;100348.19;5029826;28;19929;-82
2022/03/11 11:09:22;;;;;;;10.38;9.38;;;;;;;25.83;13.20;100347.41;5027680;28;20045;-81
2022/03/11 11:11:53;;;;;;;11.77;10.43;;;;;;;26.17;12.89;100343.84;5029739;28;20065;-82
2022/03/11 11:14:22;;;;;;;11.07;9.88;;;;;;;26.20;12.96;100337.28;5030213;28;20065;-83
2022/03/11 11:16:50;;;;;;;;;;;;;;;27.01;12.49;100350.97;5028657;28;20065;-81
2022/03/11 11:19:20;;;;;;;11.00;9.90;;;;;;;26.78;12.35;100337.41;5029490;28;19928;-83
2022/03/11 11:21:49;;;;;;;11.70;10.48;;;;;;;25.78;13.07;100342.16;5028133;28;20052;-82
2022/03/11 11:24:18;;;;;;;10.85;9.75;;;;;;;25.55;13.25;100337.88;5030303;28;20060;-82
2022/03/11 11:26:46;;;;;;;;;;;;;;;26.46;12.62;100338.59;5031523;28;20053;-82